sensor_id;sensor_type;location;lat;lon;timestamp;P1;durP1;ratioP1;P2;durP2;ratioP2
76131;SDS011;64877;50.994;13.650;2023-07-28T00:01:30;5.25;;;0.40;;
76131;SDS011;64877;50.994;13.650;2023-07-28T00:03:55;1.20;;;0.40;;
76131;SDS011;64877;50.994;13.650;2023-07-28T00:06:22;2.30;;;0.55;;
76131;SDS011;64877;50.994;13.650;2023-07-28T00:08:48;2.05;;;0.70;;
76131;SDS011;64877;50.994;13.650;2023-07-28T00:11:14;1.38;;;0.70;;
76131;SDS011;64877;50.994;13.650;2023-07-28T00:13:40;0.90;;;0.50;;
76131;SDS011;64877;50.994;13.650;2023-07-28T00:16:06;1.45;;;0.50;;
76131;SDS011;64877;50.994;13.650;2023-07-28T00:18:32;2.03;;;0.60;;
76131;SDS011;64877;50.994;13.650;2023-07-28T00:20:58;1.15;;;0.45;;
76131;SDS011;64877;50.994;13.650;2023-07-28T00:23:39;1.02;;;0.60;;
76131;SDS011;64877;50.994;13.650;2023-07-28T00:36:14;0.95;;;0.50;;
76131;SDS011;64877;50.994;13.650;2023-07-28T00:38:39;3.00;;;0.80;;
76131;SDS011;64877;50.994;13.650;2023-07-28T00:41:05;1.92;;;0.80;;
76131;SDS011;64877;50.994;13.650;2023-07-28T00:43:30;0.80;;;0.40;;
76131;SDS011;64877;50.994;13.650;2023-07-28T00:45:55;2.67;;;0.60;;
76131;SDS011;64877;50.994;13.650;2023-07-28T00:48:21;2.20;;;0.70;;
76131;SDS011;64877;50.994;13.650;2023-07-28T00:50:48;2.83;;;0.70;;
76131;SDS011;64877;50.994;13.650;2023-07-28T00:53:15;1.13;;;0.57;;
76131;SDS011;64877;50.994;13.650;2023-07-28T00:55:41;1.23;;;0.68;;
76131;SDS011;64877;50.994;13.650;2023-07-28T00:58:08;4.60;;;1.23;;
76131;SDS011;64877;50.994;13.650;2023-07-28T01:03:00;1.70;;;0.80;;
76131;SDS011;64877;50.994;13.650;2023-07-28T01:09:20;3.30;;;0.80;;
76131;SDS011;64877;50.994;13.650;2023-07-28T01:11:31;2.55;;;0.70;;
76131;SDS011;64877;50.994;13.650;2023-07-28T01:13:57;2.95;;;0.73;;
76131;SDS011;64877;50.994;13.650;2023-07-28T01:16:23;4.15;;;0.90;;
76131;SDS011;64877;50.994;13.650;2023-07-28T01:18:49;1.50;;;0.80;;
76131;SDS011;64877;50.994;13.650;2023-07-28T01:21:26;1.67;;;0.82;;
76131;SDS011;64877;50.994;13.650;2023-07-28T01:26:39;3.60;;;1.30;;
76131;SDS011;64877;50.994;13.650;2023-07-28T01:29:05;2.95;;;1.23;;
76131;SDS011;64877;50.994;13.650;2023-07-28T01:31:31;2.75;;;1.23;;
76131;SDS011;64877;50.994;13.650;2023-07-28T01:33:57;3.78;;;1.40;;
76131;SDS011;64877;50.994;13.650;2023-07-28T01:36:23;5.45;;;1.30;;
76131;SDS011;64877;50.994;13.650;2023-07-28T01:38:48;4.53;;;2.03;;
76131;SDS011;64877;50.994;13.650;2023-07-28T01:41:14;5.82;;;1.90;;
76131;SDS011;64877;50.994;13.650;2023-07-28T01:43:39;6.28;;;2.10;;
76131;SDS011;64877;50.994;13.650;2023-07-28T01:46:05;4.38;;;1.63;;
76131;SDS011;64877;50.994;13.650;2023-07-28T01:48:30;3.95;;;1.60;;
76131;SDS011;64877;50.994;13.650;2023-07-28T01:50:56;3.63;;;1.60;;
76131;SDS011;64877;50.994;13.650;2023-07-28T01:53:21;3.05;;;1.48;;
76131;SDS011;64877;50.994;13.650;2023-07-28T01:55:47;5.03;;;2.35;;
76131;SDS011;64877;50.994;13.650;2023-07-28T01:58:12;3.20;;;1.50;;
76131;SDS011;64877;50.994;13.650;2023-07-28T02:00:38;6.47;;;2.30;;
76131;SDS011;64877;50.994;13.650;2023-07-28T02:03:03;4.20;;;2.05;;
76131;SDS011;64877;50.994;13.650;2023-07-28T02:05:29;3.33;;;1.60;;
76131;SDS011;64877;50.994;13.650;2023-07-28T02:07:55;2.88;;;1.67;;
76131;SDS011;64877;50.994;13.650;2023-07-28T02:10:22;2.63;;;1.45;;
76131;SDS011;64877;50.994;13.650;2023-07-28T02:12:48;3.15;;;1.10;;
76131;SDS011;64877;50.994;13.650;2023-07-28T02:15:14;3.55;;;1.30;;
76131;SDS011;64877;50.994;13.650;2023-07-28T02:17:40;4.22;;;1.33;;
76131;SDS011;64877;50.994;13.650;2023-07-28T02:20:06;4.32;;;1.30;;
76131;SDS011;64877;50.994;13.650;2023-07-28T02:22:32;1.92;;;1.08;;
76131;SDS011;64877;50.994;13.650;2023-07-28T02:24:57;2.63;;;1.10;;
76131;SDS011;64877;50.994;13.650;2023-07-28T02:27:27;3.25;;;1.10;;
76131;SDS011;64877;50.994;13.650;2023-07-28T02:29:54;2.00;;;0.90;;
76131;SDS011;64877;50.994;13.650;2023-07-28T02:32:20;5.90;;;0.82;;
76131;SDS011;64877;50.994;13.650;2023-07-28T02:34:45;1.63;;;0.90;;
76131;SDS011;64877;50.994;13.650;2023-07-28T02:37:11;2.58;;;1.00;;
76131;SDS011;64877;50.994;13.650;2023-07-28T02:39:36;3.03;;;1.15;;
76131;SDS011;64877;50.994;13.650;2023-07-28T02:42:02;1.88;;;0.85;;
76131;SDS011;64877;50.994;13.650;2023-07-28T02:44:27;1.33;;;0.65;;
76131;SDS011;64877;50.994;13.650;2023-07-28T02:46:53;6.55;;;1.35;;
76131;SDS011;64877;50.994;13.650;2023-07-28T02:49:18;3.40;;;1.00;;
76131;SDS011;64877;50.994;13.650;2023-07-28T02:51:44;4.28;;;0.90;;
76131;SDS011;64877;50.994;13.650;2023-07-28T02:54:09;4.53;;;0.98;;
76131;SDS011;64877;50.994;13.650;2023-07-28T02:56:35;2.10;;;1.15;;
76131;SDS011;64877;50.994;13.650;2023-07-28T02:59:04;3.30;;;0.93;;
76131;SDS011;64877;50.994;13.650;2023-07-28T03:01:30;1.77;;;0.70;;
76131;SDS011;64877;50.994;13.650;2023-07-28T03:04:01;4.05;;;1.00;;
76131;SDS011;64877;50.994;13.650;2023-07-28T03:06:29;1.77;;;0.80;;
76131;SDS011;64877;50.994;13.650;2023-07-28T03:08:55;1.90;;;0.82;;
76131;SDS011;64877;50.994;13.650;2023-07-28T03:11:42;4.47;;;0.90;;
76131;SDS011;64877;50.994;13.650;2023-07-28T03:14:08;4.00;;;1.02;;
76131;SDS011;64877;50.994;13.650;2023-07-28T03:16:34;1.75;;;0.80;;
76131;SDS011;64877;50.994;13.650;2023-07-28T03:18:59;3.50;;;1.48;;
76131;SDS011;64877;50.994;13.650;2023-07-28T03:21:25;3.00;;;0.98;;
76131;SDS011;64877;50.994;13.650;2023-07-28T03:23:50;2.70;;;0.70;;
76131;SDS011;64877;50.994;13.650;2023-07-28T03:26:15;2.00;;;0.85;;
76131;SDS011;64877;50.994;13.650;2023-07-28T03:28:41;1.80;;;1.00;;
76131;SDS011;64877;50.994;13.650;2023-07-28T03:31:06;2.95;;;0.90;;
76131;SDS011;64877;50.994;13.650;2023-07-28T03:33:32;2.97;;;0.80;;
76131;SDS011;64877;50.994;13.650;2023-07-28T03:35:58;3.33;;;0.90;;
76131;SDS011;64877;50.994;13.650;2023-07-28T03:38:24;2.13;;;1.00;;
76131;SDS011;64877;50.994;13.650;2023-07-28T03:40:50;3.63;;;0.88;;
76131;SDS011;64877;50.994;13.650;2023-07-28T03:43:15;3.78;;;1.00;;
76131;SDS011;64877;50.994;13.650;2023-07-28T03:45:41;3.70;;;0.88;;
76131;SDS011;64877;50.994;13.650;2023-07-28T03:48:07;1.08;;;0.60;;
76131;SDS011;64877;50.994;13.650;2023-07-28T03:50:32;3.78;;;0.85;;
76131;SDS011;64877;50.994;13.650;2023-07-28T03:52:58;3.58;;;0.82;;
76131;SDS011;64877;50.994;13.650;2023-07-28T03:55:23;2.83;;;0.73;;
76131;SDS011;64877;50.994;13.650;2023-07-28T03:57:49;3.08;;;0.82;;
76131;SDS011;64877;50.994;13.650;2023-07-28T04:00:14;3.05;;;1.30;;
76131;SDS011;64877;50.994;13.650;2023-07-28T04:02:40;4.93;;;1.10;;
76131;SDS011;64877;50.994;13.650;2023-07-28T04:05:06;1.90;;;0.80;;
76131;SDS011;64877;50.994;13.650;2023-07-28T04:07:31;2.83;;;0.90;;
76131;SDS011;64877;50.994;13.650;2023-07-28T04:09:57;1.50;;;0.90;;
76131;SDS011;64877;50.994;13.650;2023-07-28T04:12:22;1.67;;;0.60;;
76131;SDS011;64877;50.994;13.650;2023-07-28T04:14:48;3.17;;;0.90;;
76131;SDS011;64877;50.994;13.650;2023-07-28T04:17:13;1.45;;;0.73;;
76131;SDS011;64877;50.994;13.650;2023-07-28T04:19:39;1.27;;;0.65;;
76131;SDS011;64877;50.994;13.650;2023-07-28T04:22:04;2.17;;;1.23;;
76131;SDS011;64877;50.994;13.650;2023-07-28T04:24:31;1.98;;;0.80;;
76131;SDS011;64877;50.994;13.650;2023-07-28T04:26:57;2.22;;;0.80;;
76131;SDS011;64877;50.994;13.650;2023-07-28T04:29:23;1.60;;;0.70;;
76131;SDS011;64877;50.994;13.650;2023-07-28T04:31:49;2.28;;;1.00;;
76131;SDS011;64877;50.994;13.650;2023-07-28T04:34:20;2.03;;;0.80;;
76131;SDS011;64877;50.994;13.650;2023-07-28T04:37:04;1.25;;;0.60;;
76131;SDS011;64877;50.994;13.650;2023-07-28T04:39:41;3.88;;;0.70;;
76131;SDS011;64877;50.994;13.650;2023-07-28T04:42:09;2.05;;;0.50;;
76131;SDS011;64877;50.994;13.650;2023-07-28T04:44:39;1.85;;;0.70;;
76131;SDS011;64877;50.994;13.650;2023-07-28T04:47:07;1.65;;;0.75;;
76131;SDS011;64877;50.994;13.650;2023-07-28T04:49:33;1.02;;;0.50;;
76131;SDS011;64877;50.994;13.650;2023-07-28T04:52:04;1.55;;;0.75;;
76131;SDS011;64877;50.994;13.650;2023-07-28T04:54:41;1.10;;;0.60;;
76131;SDS011;64877;50.994;13.650;2023-07-28T04:57:07;1.80;;;0.80;;
76131;SDS011;64877;50.994;13.650;2023-07-28T04:59:35;1.85;;;0.80;;
76131;SDS011;64877;50.994;13.650;2023-07-28T05:02:01;2.13;;;0.60;;
76131;SDS011;64877;50.994;13.650;2023-07-28T05:04:26;2.08;;;0.93;;
76131;SDS011;64877;50.994;13.650;2023-07-28T05:06:52;1.48;;;0.65;;
76131;SDS011;64877;50.994;13.650;2023-07-28T05:09:17;4.43;;;1.10;;
76131;SDS011;64877;50.994;13.650;2023-07-28T05:11:43;3.05;;;0.90;;
76131;SDS011;64877;50.994;13.650;2023-07-28T05:14:08;1.65;;;0.70;;
76131;SDS011;64877;50.994;13.650;2023-07-28T05:16:34;2.47;;;0.70;;
76131;SDS011;64877;50.994;13.650;2023-07-28T05:19:05;1.13;;;0.60;;
76131;SDS011;64877;50.994;13.650;2023-07-28T05:21:50;2.17;;;0.90;;
76131;SDS011;64877;50.994;13.650;2023-07-28T05:24:18;3.47;;;0.63;;
76131;SDS011;64877;50.994;13.650;2023-07-28T05:26:44;2.08;;;0.68;;
76131;SDS011;64877;50.994;13.650;2023-07-28T05:29:13;1.35;;;0.55;;
76131;SDS011;64877;50.994;13.650;2023-07-28T05:31:38;1.63;;;0.80;;
76131;SDS011;64877;50.994;13.650;2023-07-28T05:34:11;1.50;;;0.70;;
76131;SDS011;64877;50.994;13.650;2023-07-28T05:36:40;2.10;;;0.70;;
76131;SDS011;64877;50.994;13.650;2023-07-28T05:39:05;2.65;;;0.80;;
76131;SDS011;64877;50.994;13.650;2023-07-28T05:41:37;1.50;;;0.60;;
76131;SDS011;64877;50.994;13.650;2023-07-28T05:44:04;1.67;;;0.90;;
76131;SDS011;64877;50.994;13.650;2023-07-28T05:46:29;1.30;;;0.70;;
76131;SDS011;64877;50.994;13.650;2023-07-28T05:51:22;1.55;;;0.60;;
76131;SDS011;64877;50.994;13.650;2023-07-28T05:53:49;1.70;;;0.80;;
76131;SDS011;64877;50.994;13.650;2023-07-28T05:56:17;1.77;;;0.70;;
76131;SDS011;64877;50.994;13.650;2023-07-28T05:58:44;1.10;;;0.60;;
76131;SDS011;64877;50.994;13.650;2023-07-28T06:04:05;2.60;;;0.75;;
76131;SDS011;64877;50.994;13.650;2023-07-28T06:06:37;2.22;;;1.33;;
76131;SDS011;64877;50.994;13.650;2023-07-28T06:09:02;1.42;;;0.70;;
76131;SDS011;64877;50.994;13.650;2023-07-28T06:11:28;2.30;;;0.75;;
76131;SDS011;64877;50.994;13.650;2023-07-28T06:13:53;1.20;;;0.50;;
76131;SDS011;64877;50.994;13.650;2023-07-28T06:16:20;1.27;;;0.55;;
76131;SDS011;64877;50.994;13.650;2023-07-28T06:18:45;0.95;;;0.50;;
76131;SDS011;64877;50.994;13.650;2023-07-28T06:21:18;1.33;;;0.70;;
76131;SDS011;64877;50.994;13.650;2023-07-28T06:23:43;3.13;;;0.70;;
76131;SDS011;64877;50.994;13.650;2023-07-28T06:26:09;2.50;;;0.70;;
76131;SDS011;64877;50.994;13.650;2023-07-28T06:28:36;1.02;;;0.60;;
76131;SDS011;64877;50.994;13.650;2023-07-28T06:31:02;1.80;;;0.93;;
76131;SDS011;64877;50.994;13.650;2023-07-28T06:33:28;1.30;;;0.40;;
76131;SDS011;64877;50.994;13.650;2023-07-28T06:35:54;2.00;;;0.60;;
76131;SDS011;64877;50.994;13.650;2023-07-28T06:38:19;2.75;;;0.70;;
76131;SDS011;64877;50.994;13.650;2023-07-28T06:40:45;1.05;;;0.50;;
76131;SDS011;64877;50.994;13.650;2023-07-28T06:43:11;3.03;;;0.90;;
76131;SDS011;64877;50.994;13.650;2023-07-28T06:45:37;1.85;;;0.50;;
76131;SDS011;64877;50.994;13.650;2023-07-28T06:48:02;1.70;;;0.50;;
76131;SDS011;64877;50.994;13.650;2023-07-28T06:50:28;1.80;;;0.60;;
76131;SDS011;64877;50.994;13.650;2023-07-28T06:52:54;2.30;;;0.30;;
76131;SDS011;64877;50.994;13.650;2023-07-28T06:55:22;2.10;;;0.40;;
76131;SDS011;64877;50.994;13.650;2023-07-28T06:57:48;0.73;;;0.30;;
76131;SDS011;64877;50.994;13.650;2023-07-28T07:00:15;1.35;;;0.45;;
76131;SDS011;64877;50.994;13.650;2023-07-28T07:02:43;1.17;;;0.40;;
76131;SDS011;64877;50.994;13.650;2023-07-28T07:05:09;0.68;;;0.30;;
76131;SDS011;64877;50.994;13.650;2023-07-28T07:07:34;2.95;;;0.52;;
76131;SDS011;64877;50.994;13.650;2023-07-28T07:10:00;2.05;;;0.55;;
76131;SDS011;64877;50.994;13.650;2023-07-28T07:12:25;2.17;;;0.73;;
76131;SDS011;64877;50.994;13.650;2023-07-28T07:14:51;3.22;;;0.50;;
76131;SDS011;64877;50.994;13.650;2023-07-28T07:17:16;1.30;;;0.40;;
76131;SDS011;64877;50.994;13.650;2023-07-28T07:19:42;1.52;;;0.30;;
76131;SDS011;64877;50.994;13.650;2023-07-28T07:22:08;1.60;;;0.50;;
76131;SDS011;64877;50.994;13.650;2023-07-28T07:24:33;2.65;;;0.50;;
76131;SDS011;64877;50.994;13.650;2023-07-28T07:26:59;2.30;;;0.40;;
76131;SDS011;64877;50.994;13.650;2023-07-28T07:29:24;2.20;;;0.95;;
76131;SDS011;64877;50.994;13.650;2023-07-28T07:31:49;1.45;;;0.80;;
76131;SDS011;64877;50.994;13.650;2023-07-28T07:34:20;0.60;;;0.30;;
76131;SDS011;64877;50.994;13.650;2023-07-28T07:36:46;1.00;;;0.40;;
76131;SDS011;64877;50.994;13.650;2023-07-28T07:39:11;1.17;;;0.40;;
76131;SDS011;64877;50.994;13.650;2023-07-28T07:41:36;1.45;;;0.60;;
76131;SDS011;64877;50.994;13.650;2023-07-28T07:44:02;1.10;;;0.50;;
76131;SDS011;64877;50.994;13.650;2023-07-28T07:46:27;3.33;;;0.80;;
76131;SDS011;64877;50.994;13.650;2023-07-28T07:48:53;0.63;;;0.30;;
76131;SDS011;64877;50.994;13.650;2023-07-28T07:51:18;1.05;;;0.40;;
76131;SDS011;64877;50.994;13.650;2023-07-28T07:53:44;0.35;;;0.20;;
76131;SDS011;64877;50.994;13.650;2023-07-28T07:56:10;0.50;;;0.25;;
76131;SDS011;64877;50.994;13.650;2023-07-28T07:58:35;0.93;;;0.32;;
76131;SDS011;64877;50.994;13.650;2023-07-28T08:01:02;0.77;;;0.20;;
76131;SDS011;64877;50.994;13.650;2023-07-28T08:03:27;0.70;;;0.30;;
76131;SDS011;64877;50.994;13.650;2023-07-28T08:05:53;0.68;;;0.35;;
76131;SDS011;64877;50.994;13.650;2023-07-28T08:08:19;3.85;;;0.55;;
76131;SDS011;64877;50.994;13.650;2023-07-28T08:10:48;0.25;;;0.20;;
76131;SDS011;64877;50.994;13.650;2023-07-28T08:13:14;0.75;;;0.30;;
76131;SDS011;64877;50.994;13.650;2023-07-28T08:15:42;0.60;;;0.25;;
76131;SDS011;64877;50.994;13.650;2023-07-28T08:18:08;1.10;;;0.47;;
76131;SDS011;64877;50.994;13.650;2023-07-28T08:20:33;0.80;;;0.30;;
76131;SDS011;64877;50.994;13.650;2023-07-28T08:22:59;1.08;;;0.30;;
76131;SDS011;64877;50.994;13.650;2023-07-28T08:25:24;1.30;;;0.40;;
76131;SDS011;64877;50.994;13.650;2023-07-28T08:27:50;0.65;;;0.30;;
76131;SDS011;64877;50.994;13.650;2023-07-28T08:30:15;0.40;;;0.20;;
76131;SDS011;64877;50.994;13.650;2023-07-28T08:32:41;0.70;;;0.30;;
76131;SDS011;64877;50.994;13.650;2023-07-28T08:35:08;0.40;;;0.20;;
76131;SDS011;64877;50.994;13.650;2023-07-28T08:37:33;0.60;;;0.30;;
76131;SDS011;64877;50.994;13.650;2023-07-28T08:39:59;1.23;;;0.20;;
76131;SDS011;64877;50.994;13.650;2023-07-28T08:42:24;1.00;;;0.30;;
76131;SDS011;64877;50.994;13.650;2023-07-28T08:44:50;1.73;;;0.40;;
76131;SDS011;64877;50.994;13.650;2023-07-28T08:47:18;1.48;;;0.20;;
76131;SDS011;64877;50.994;13.650;2023-07-28T08:49:44;1.75;;;0.30;;
76131;SDS011;64877;50.994;13.650;2023-07-28T08:52:10;0.47;;;0.20;;
76131;SDS011;64877;50.994;13.650;2023-07-28T08:54:35;0.57;;;0.30;;
76131;SDS011;64877;50.994;13.650;2023-07-28T08:57:01;0.60;;;0.30;;
76131;SDS011;64877;50.994;13.650;2023-07-28T08:59:27;1.05;;;0.50;;
76131;SDS011;64877;50.994;13.650;2023-07-28T09:04:23;1.00;;;0.32;;
76131;SDS011;64877;50.994;13.650;2023-07-28T09:06:52;1.38;;;0.30;;
76131;SDS011;64877;50.994;13.650;2023-07-28T09:09:24;2.25;;;0.40;;
76131;SDS011;64877;50.994;13.650;2023-07-28T09:12:11;2.15;;;0.40;;
76131;SDS011;64877;50.994;13.650;2023-07-28T09:14:36;0.65;;;0.30;;
76131;SDS011;64877;50.994;13.650;2023-07-28T09:17:07;0.60;;;0.30;;
76131;SDS011;64877;50.994;13.650;2023-07-28T09:19:34;1.15;;;0.60;;
76131;SDS011;64877;50.994;13.650;2023-07-28T09:22:00;1.70;;;0.38;;
76131;SDS011;64877;50.994;13.650;2023-07-28T09:24:30;0.43;;;0.20;;
76131;SDS011;64877;50.994;13.650;2023-07-28T09:26:57;1.95;;;0.40;;
76131;SDS011;64877;50.994;13.650;2023-07-28T09:32:05;0.80;;;0.40;;
76131;SDS011;64877;50.994;13.650;2023-07-28T09:34:39;1.88;;;0.40;;
76131;SDS011;64877;50.994;13.650;2023-07-28T09:37:07;1.02;;;0.40;;
76131;SDS011;64877;50.994;13.650;2023-07-28T09:39:36;1.05;;;0.50;;
76131;SDS011;64877;50.994;13.650;2023-07-28T09:42:03;1.20;;;0.30;;
76131;SDS011;64877;50.994;13.650;2023-07-28T09:44:30;1.80;;;0.90;;
76131;SDS011;64877;50.994;13.650;2023-07-28T09:46:56;1.27;;;0.50;;
76131;SDS011;64877;50.994;13.650;2023-07-28T09:49:32;1.30;;;0.50;;
76131;SDS011;64877;50.994;13.650;2023-07-28T09:52:06;1.30;;;0.50;;
76131;SDS011;64877;50.994;13.650;2023-07-28T09:54:40;1.23;;;0.45;;
76131;SDS011;64877;50.994;13.650;2023-07-28T09:57:08;1.60;;;0.45;;
76131;SDS011;64877;50.994;13.650;2023-07-28T09:59:45;3.17;;;0.50;;
76131;SDS011;64877;50.994;13.650;2023-07-28T10:02:12;1.08;;;0.30;;
76131;SDS011;64877;50.994;13.650;2023-07-28T10:04:38;1.20;;;0.35;;
76131;SDS011;64877;50.994;13.650;2023-07-28T10:07:04;2.70;;;0.50;;
76131;SDS011;64877;50.994;13.650;2023-07-28T10:09:31;1.33;;;0.38;;
76131;SDS011;64877;50.994;13.650;2023-07-28T10:11:58;0.77;;;0.30;;
76131;SDS011;64877;50.994;13.650;2023-07-28T10:14:34;1.30;;;0.38;;
76131;SDS011;64877;50.994;13.650;2023-07-28T10:17:03;0.95;;;0.40;;
76131;SDS011;64877;50.994;13.650;2023-07-28T10:19:34;0.82;;;0.28;;
76131;SDS011;64877;50.994;13.650;2023-07-28T10:22:00;1.85;;;0.30;;
76131;SDS011;64877;50.994;13.650;2023-07-28T10:27:27;1.90;;;0.50;;
76131;SDS011;64877;50.994;13.650;2023-07-28T10:29:57;0.68;;;0.30;;
76131;SDS011;64877;50.994;13.650;2023-07-28T10:32:28;0.95;;;0.32;;
76131;SDS011;64877;50.994;13.650;2023-07-28T10:35:00;1.35;;;0.40;;
76131;SDS011;64877;50.994;13.650;2023-07-28T10:37:28;0.90;;;0.40;;
76131;SDS011;64877;50.994;13.650;2023-07-28T10:42:58;0.80;;;0.30;;
76131;SDS011;64877;50.994;13.650;2023-07-28T10:45:27;0.85;;;0.30;;
76131;SDS011;64877;50.994;13.650;2023-07-28T10:47:54;0.80;;;0.15;;
76131;SDS011;64877;50.994;13.650;2023-07-28T10:50:21;0.60;;;0.30;;
76131;SDS011;64877;50.994;13.650;2023-07-28T10:52:48;1.00;;;0.30;;
76131;SDS011;64877;50.994;13.650;2023-07-28T10:57:43;3.88;;;0.82;;
76131;SDS011;64877;50.994;13.650;2023-07-28T11:00:11;0.75;;;0.30;;
76131;SDS011;64877;50.994;13.650;2023-07-28T11:02:58;2.75;;;0.47;;
76131;SDS011;64877;50.994;13.650;2023-07-28T11:05:24;0.85;;;0.30;;
76131;SDS011;64877;50.994;13.650;2023-07-28T11:07:51;0.80;;;0.38;;
76131;SDS011;64877;50.994;13.650;2023-07-28T11:10:22;4.05;;;0.40;;
76131;SDS011;64877;50.994;13.650;2023-07-28T11:12:49;0.73;;;0.20;;
76131;SDS011;64877;50.994;13.650;2023-07-28T11:15:16;17.83;;;3.15;;
76131;SDS011;64877;50.994;13.650;2023-07-28T11:17:45;2.63;;;0.52;;
76131;SDS011;64877;50.994;13.650;2023-07-28T11:20:23;2.33;;;0.50;;
76131;SDS011;64877;50.994;13.650;2023-07-28T11:25:22;1.98;;;0.50;;
76131;SDS011;64877;50.994;13.650;2023-07-28T11:27:49;1.20;;;0.30;;
76131;SDS011;64877;50.994;13.650;2023-07-28T11:30:16;1.45;;;0.25;;
76131;SDS011;64877;50.994;13.650;2023-07-28T11:32:43;1.60;;;0.50;;
76131;SDS011;64877;50.994;13.650;2023-07-28T11:35:10;1.75;;;0.47;;
76131;SDS011;64877;50.994;13.650;2023-07-28T11:37:38;1.60;;;0.30;;
76131;SDS011;64877;50.994;13.650;2023-07-28T11:40:05;1.23;;;0.38;;
76131;SDS011;64877;50.994;13.650;2023-07-28T11:42:39;0.57;;;0.30;;
76131;SDS011;64877;50.994;13.650;2023-07-28T11:45:12;2.15;;;0.50;;
76131;SDS011;64877;50.994;13.650;2023-07-28T11:47:50;1.77;;;0.50;;
76131;SDS011;64877;50.994;13.650;2023-07-28T11:50:28;2.83;;;0.30;;
76131;SDS011;64877;50.994;13.650;2023-07-28T11:52:55;1.25;;;0.40;;
76131;SDS011;64877;50.994;13.650;2023-07-28T11:55:22;1.52;;;0.40;;
76131;SDS011;64877;50.994;13.650;2023-07-28T11:57:49;1.70;;;0.50;;
76131;SDS011;64877;50.994;13.650;2023-07-28T12:00:15;0.98;;;0.30;;
76131;SDS011;64877;50.994;13.650;2023-07-28T12:02:59;0.77;;;0.30;;
76131;SDS011;64877;50.994;13.650;2023-07-28T12:05:25;1.00;;;0.40;;
76131;SDS011;64877;50.994;13.650;2023-07-28T12:07:51;0.88;;;0.32;;
76131;SDS011;64877;50.994;13.650;2023-07-28T12:10:16;4.20;;;0.60;;
76131;SDS011;64877;50.994;13.650;2023-07-28T12:12:44;1.30;;;0.70;;
76131;SDS011;64877;50.994;13.650;2023-07-28T12:15:18;1.15;;;0.50;;
76131;SDS011;64877;50.994;13.650;2023-07-28T12:18:06;2.00;;;0.40;;
76131;SDS011;64877;50.994;13.650;2023-07-28T12:20:36;0.95;;;0.40;;
76131;SDS011;64877;50.994;13.650;2023-07-28T12:23:07;1.50;;;0.40;;
76131;SDS011;64877;50.994;13.650;2023-07-28T12:25:34;1.23;;;0.60;;
76131;SDS011;64877;50.994;13.650;2023-07-28T12:28:01;7.03;;;1.48;;
76131;SDS011;64877;50.994;13.650;2023-07-28T12:30:27;9.13;;;2.33;;
76131;SDS011;64877;50.994;13.650;2023-07-28T12:32:52;5.75;;;2.10;;
76131;SDS011;64877;50.994;13.650;2023-07-28T12:35:18;9.80;;;3.05;;
76131;SDS011;64877;50.994;13.650;2023-07-28T12:37:43;6.82;;;1.73;;
76131;SDS011;64877;50.994;13.650;2023-07-28T12:40:09;4.22;;;1.42;;
76131;SDS011;64877;50.994;13.650;2023-07-28T12:42:35;4.38;;;0.82;;
76131;SDS011;64877;50.994;13.650;2023-07-28T12:45:01;1.35;;;0.57;;
76131;SDS011;64877;50.994;13.650;2023-07-28T12:47:26;1.67;;;0.50;;
76131;SDS011;64877;50.994;13.650;2023-07-28T12:49:52;1.48;;;0.70;;
76131;SDS011;64877;50.994;13.650;2023-07-28T12:52:18;1.17;;;0.50;;
76131;SDS011;64877;50.994;13.650;2023-07-28T12:54:43;1.77;;;0.60;;
76131;SDS011;64877;50.994;13.650;2023-07-28T12:57:09;1.38;;;0.50;;
76131;SDS011;64877;50.994;13.650;2023-07-28T12:59:37;2.40;;;0.50;;
76131;SDS011;64877;50.994;13.650;2023-07-28T13:02:03;1.95;;;0.40;;
76131;SDS011;64877;50.994;13.650;2023-07-28T13:04:28;2.85;;;0.70;;
76131;SDS011;64877;50.994;13.650;2023-07-28T13:06:54;1.85;;;0.50;;
76131;SDS011;64877;50.994;13.650;2023-07-28T13:09:20;2.08;;;0.50;;
76131;SDS011;64877;50.994;13.650;2023-07-28T13:11:45;1.42;;;0.60;;
76131;SDS011;64877;50.994;13.650;2023-07-28T13:14:11;3.53;;;0.85;;
76131;SDS011;64877;50.994;13.650;2023-07-28T13:16:36;1.92;;;0.60;;
76131;SDS011;64877;50.994;13.650;2023-07-28T13:19:03;1.27;;;0.50;;
76131;SDS011;64877;50.994;13.650;2023-07-28T13:21:31;2.95;;;0.65;;
76131;SDS011;64877;50.994;13.650;2023-07-28T13:23:58;3.17;;;0.60;;
76131;SDS011;64877;50.994;13.650;2023-07-28T13:26:23;1.50;;;0.45;;
76131;SDS011;64877;50.994;13.650;2023-07-28T13:28:50;1.08;;;0.50;;
76131;SDS011;64877;50.994;13.650;2023-07-28T13:31:16;10.65;;;3.40;;
76131;SDS011;64877;50.994;13.650;2023-07-28T13:33:43;10.68;;;4.32;;
76131;SDS011;64877;50.994;13.650;2023-07-28T13:36:09;4.22;;;1.67;;
76131;SDS011;64877;50.994;13.650;2023-07-28T13:42:36;5.60;;;1.95;;
76131;SDS011;64877;50.994;13.650;2023-07-28T13:45:15;1.20;;;0.52;;
76131;SDS011;64877;50.994;13.650;2023-07-28T13:47:54;2.20;;;0.70;;
76131;SDS011;64877;50.994;13.650;2023-07-28T13:50:23;2.38;;;0.60;;
76131;SDS011;64877;50.994;13.650;2023-07-28T13:52:49;3.28;;;0.60;;
76131;SDS011;64877;50.994;13.650;2023-07-28T13:55:14;1.05;;;0.50;;
76131;SDS011;64877;50.994;13.650;2023-07-28T13:57:40;1.30;;;0.50;;
76131;SDS011;64877;50.994;13.650;2023-07-28T14:00:06;1.95;;;0.40;;
76131;SDS011;64877;50.994;13.650;2023-07-28T14:02:38;1.92;;;0.68;;
76131;SDS011;64877;50.994;13.650;2023-07-28T14:05:54;1.65;;;0.40;;
76131;SDS011;64877;50.994;13.650;2023-07-28T14:08:19;1.77;;;0.40;;
76131;SDS011;64877;50.994;13.650;2023-07-28T14:10:45;0.70;;;0.38;;
76131;SDS011;64877;50.994;13.650;2023-07-28T14:13:18;1.23;;;0.60;;
76131;SDS011;64877;50.994;13.650;2023-07-28T14:15:48;0.95;;;0.50;;
76131;SDS011;64877;50.994;13.650;2023-07-28T14:18:16;1.63;;;0.45;;
76131;SDS011;64877;50.994;13.650;2023-07-28T14:20:42;0.77;;;0.40;;
76131;SDS011;64877;50.994;13.650;2023-07-28T14:23:20;1.95;;;0.52;;
76131;SDS011;64877;50.994;13.650;2023-07-28T14:25:50;1.30;;;0.57;;
76131;SDS011;64877;50.994;13.650;2023-07-28T14:28:15;1.45;;;0.40;;
76131;SDS011;64877;50.994;13.650;2023-07-28T14:30:41;1.38;;;0.50;;
76131;SDS011;64877;50.994;13.650;2023-07-28T14:33:11;1.10;;;0.60;;
76131;SDS011;64877;50.994;13.650;2023-07-28T14:35:41;1.38;;;0.47;;
76131;SDS011;64877;50.994;13.650;2023-07-28T14:38:08;0.77;;;0.32;;
76131;SDS011;64877;50.994;13.650;2023-07-28T14:40:35;1.13;;;0.40;;
76131;SDS011;64877;50.994;13.650;2023-07-28T14:43:01;0.63;;;0.38;;
76131;SDS011;64877;50.994;13.650;2023-07-28T14:45:26;0.82;;;0.40;;
76131;SDS011;64877;50.994;13.650;2023-07-28T14:47:52;0.70;;;0.40;;
76131;SDS011;64877;50.994;13.650;2023-07-28T14:50:17;1.15;;;0.38;;
76131;SDS011;64877;50.994;13.650;2023-07-28T14:52:43;1.48;;;0.43;;
76131;SDS011;64877;50.994;13.650;2023-07-28T14:55:08;0.43;;;0.30;;
76131;SDS011;64877;50.994;13.650;2023-07-28T14:57:34;0.85;;;0.40;;
76131;SDS011;64877;50.994;13.650;2023-07-28T15:00:00;1.38;;;0.60;;
76131;SDS011;64877;50.994;13.650;2023-07-28T15:02:25;2.40;;;0.40;;
76131;SDS011;64877;50.994;13.650;2023-07-28T15:04:51;0.85;;;0.45;;
76131;SDS011;64877;50.994;13.650;2023-07-28T15:07:20;0.73;;;0.35;;
76131;SDS011;64877;50.994;13.650;2023-07-28T15:09:47;4.70;;;0.90;;
76131;SDS011;64877;50.994;13.650;2023-07-28T15:12:13;7.10;;;0.70;;
76131;SDS011;64877;50.994;13.650;2023-07-28T15:14:38;2.25;;;0.50;;
76131;SDS011;64877;50.994;13.650;2023-07-28T15:17:04;0.80;;;0.43;;
76131;SDS011;64877;50.994;13.650;2023-07-28T15:19:30;2.42;;;0.60;;